Time;durP1;ratioP1;P1;durP2;ratioP2;P2;SDS_P1;SDS_P2;PMS_P1;PMS_P2;Temp;Humidity;BMP_temperature;BMP_pressure;BME280_temperature;BME280_humidity;BME280_pressure;Samples;Min_cycle;Max_cycle;Signal;HPM_P1;HPM_P2
2021/08/02 00:00:05;;;;;;;2.80;2.60;;;31.60;66.70;;;;;;5010372;28;20466;-28
2021/08/02 00:02:44;;;;;;;2.43;2.23;;;31.40;67.80;;;;;;5006872;28;20488;-27
2021/08/02 00:05:17;;;;;;;2.90;2.70;;;31.50;68.50;;;;;;5013433;28;20540;-29
2021/08/02 00:07:53;;;;;;;2.70;2.60;;;31.60;67.70;;;;;;5010143;28;20497;-28
2021/08/02 00:10:26;;;;;;;2.70;2.50;;;31.50;68.70;;;;;;5015112;28;20443;-29
2021/08/02 00:13:02;;;;;;;2.37;2.20;;;31.50;68.20;;;;;;5017710;28;20539;-28
2021/08/02 00:15:34;;;;;;;2.17;2.07;;;31.40;67.70;;;;;;5016658;28;20451;-28
2021/08/02 00:18:06;;;;;;;2.50;2.40;;;31.30;68.30;;;;;;5017935;28;20604;-28
2021/08/02 00:20:37;;;;;;;2.43;2.33;;;31.20;68.50;;;;;;5025104;28;20457;-28
2021/08/02 00:23:10;;;;;;;2.50;2.30;;;31.20;68.70;;;;;;5018324;28;20486;-28
2021/08/02 00:25:41;;;;;;;2.20;2.00;;;31.10;68.40;;;;;;5022704;28;20920;-29
2021/08/02 00:28:15;;;;;;;2.57;2.40;;;31.10;69.20;;;;;;5012558;28;20460;-29
2021/08/02 00:30:48;;;;;;;2.73;2.30;;;31.10;68.80;;;;;;5014909;28;20479;-28
2021/08/02 00:33:19;;;;;;;2.27;2.17;;;31.10;68.30;;;;;;5005800;28;20455;-28
2021/08/02 00:35:57;;;;;;;2.40;2.30;;;30.80;69.30;;;;;;5021650;28;20460;-29
2021/08/02 00:38:35;;;;;;;2.30;2.10;;;30.80;69.50;;;;;;5022195;28;20494;-28
2021/08/02 00:41:34;;;;;;;3.10;2.20;;;30.80;70.10;;;;;;5013124;28;20440;-29
2021/08/02 00:44:38;;;;;;;2.10;1.90;;;30.60;70.00;;;;;;5011584;28;20561;-29
2021/08/02 00:47:17;;;;;;;2.27;2.17;;;30.60;70.30;;;;;;5019249;28;20496;-28
2021/08/02 00:49:54;;;;;;;3.53;2.17;;;30.60;70.70;;;;;;5015743;28;20452;-28
2021/08/02 00:52:28;;;;;;;4.93;2.37;;;30.60;69.70;;;;;;5003441;28;20513;-27
2021/08/02 00:55:02;;;;;;;2.23;1.90;;;30.50;71.10;;;;;;5008453;28;20481;-28
2021/08/02 00:57:38;;;;;;;5.50;5.10;;;30.40;70.70;;;;;;5002899;28;20467;-28
2021/08/02 01:00:12;;;;;;;9.80;9.20;;;30.40;70.10;;;;;;5011560;28;20461;-28
2021/08/02 01:02:50;;;;;;;197.80;182.13;;;30.30;70.30;;;;;;5020117;28;20776;-28
2021/08/02 01:05:22;;;;;;;50.37;46.90;;;30.30;69.70;;;;;;5023681;28;20468;-28
2021/08/02 01:07:59;;;;;;;16.70;15.50;;;30.40;70.30;;;;;;5035351;28;20943;-28
2021/08/02 01:10:32;;;;;;;4.37;4.07;;;30.30;69.60;;;;;;5016035;28;20459;-28
2021/08/02 01:13:07;;;;;;;8.20;7.60;;;30.30;69.30;;;;;;5016842;28;20455;-28
2021/08/02 01:15:38;;;;;;;17.17;15.77;;;30.30;69.50;;;;;;5018767;28;20522;-28
2021/08/02 01:18:13;;;;;;;5.00;4.60;;;30.30;69.30;;;;;;5005258;28;20462;-28
2021/08/02 01:20:49;;;;;;;2.10;2.00;;;30.20;68.70;;;;;;5021145;28;20431;-28
2021/08/02 01:23:23;;;;;;;2.23;2.13;;;30.20;69.70;;;;;;5019133;28;20441;-28
2021/08/02 01:26:17;;;;;;;2.60;2.30;;;30.20;68.20;;;;;;5026064;28;20481;-28
2021/08/02 01:29:24;;;;;;;5.07;2.43;;;30.10;67.70;;;;;;5025938;28;20467;-28
2021/08/02 01:31:55;;;;;;;4.13;3.63;;;30.00;68.50;;;;;;5019543;28;20488;-28
2021/08/02 01:34:27;;;;;;;111.80;101.27;;;29.90;68.30;;;;;;5015707;28;20453;-28
2021/08/02 01:36:58;;;;;;;3.87;3.57;;;29.90;67.40;;;;;;5018567;28;20447;-29
2021/08/02 01:39:32;;;;;;;2.20;2.10;;;29.80;67.80;;;;;;5023982;28;20957;-28
2021/08/02 01:42:04;;;;;;;2.40;2.30;;;29.70;68.30;;;;;;5006365;28;20444;-30
2021/08/02 01:44:36;;;;;;;2.10;2.00;;;29.40;69.90;;;;;;5021985;28;20474;-28
2021/08/02 01:47:12;;;;;;;2.50;2.30;;;29.30;70.80;;;;;;5019169;28;20505;-28
2021/08/02 01:49:50;;;;;;;2.77;2.57;;;29.10;71.70;;;;;;5022187;28;20465;-28
2021/08/02 01:52:27;;;;;;;2.30;2.20;;;29.00;71.20;;;;;;5019731;28;20450;-29
2021/08/02 01:55:08;;;;;;;3.07;2.87;;;28.90;72.20;;;;;;5006340;28;20581;-28
2021/08/02 01:57:45;;;;;;;1.80;1.70;;;28.90;72.80;;;;;;5009284;28;20945;-28
2021/08/02 02:00:17;;;;;;;2.30;2.20;;;28.80;72.20;;;;;;5020690;28;20470;-29
2021/08/02 02:02:56;;;;;;;2.70;2.53;;;28.70;72.40;;;;;;5018318;28;20470;-28
2021/08/02 02:05:33;;;;;;;2.87;2.67;;;28.70;73.30;;;;;;5015609;28;20454;-28
2021/08/02 02:08:13;;;;;;;2.37;2.17;;;28.60;74.20;;;;;;5013123;28;20518;-28
2021/08/02 02:10:50;;;;;;;2.80;2.60;;;28.60;75.00;;;;;;5022367;28;20576;-28
2021/08/02 02:13:29;;;;;;;2.47;2.27;;;28.50;75.40;;;;;;5011462;28;20588;-28
2021/08/02 02:16:02;;;;;;;2.77;2.30;;;28.40;75.80;;;;;;5025036;28;20461;-28
2021/08/02 02:18:36;;;;;;;2.57;2.47;;;28.40;76.50;;;;;;5014930;28;20468;-28
2021/08/02 02:21:10;;;;;;;2.57;2.23;;;28.40;76.80;;;;;;5020673;28;20446;-28
2021/08/02 02:23:42;;;;;;;2.53;2.40;;;28.30;76.10;;;;;;5015193;28;20478;-28
2021/08/02 02:26:16;;;;;;;2.77;2.57;;;28.10;76.70;;;;;;5022891;28;20557;-29
2021/08/02 02:28:47;;;;;;;2.90;2.70;;;28.00;76.30;;;;;;5010427;28;20488;-28
2021/08/02 02:31:19;;;;;;;2.90;2.70;;;27.90;76.80;;;;;;5017767;28;20507;-29
2021/08/02 02:33:51;;;;;;;3.00;2.80;;;27.70;76.80;;;;;;5023683;28;20448;-29
2021/08/02 02:36:23;;;;;;;3.20;3.00;;;27.70;77.00;;;;;;5017094;28;20440;-28
2021/08/02 02:38:55;;;;;;;3.63;3.00;;;27.60;77.20;;;;;;5021594;28;20453;-28
2021/08/02 02:41:28;;;;;;;3.00;2.80;;;27.60;77.40;;;;;;5016349;28;20598;-28
2021/08/02 02:44:00;;;;;;;4.13;2.97;;;27.50;78.20;;;;;;5009950;28;20499;-27
2021/08/02 02:46:33;;;;;;;3.23;3.03;;;27.40;78.50;;;;;;5005495;28;20458;-27
2021/08/02 02:49:05;;;;;;;2.90;2.60;;;27.30;79.10;;;;;;5016288;28;20491;-29
2021/08/02 02:51:37;;;;;;;2.83;2.63;;;27.10;80.00;;;;;;5005247;28;20495;-28
2021/08/02 02:54:10;;;;;;;2.80;2.60;;;27.00;80.30;;;;;;5005614;28;20452;-28
2021/08/02 02:56:42;;;;;;;2.90;2.70;;;27.00;80.70;;;;;;5005035;28;20448;-28
2021/08/02 02:59:13;;;;;;;2.90;2.70;;;26.90;81.60;;;;;;5021353;28;20497;-28
2021/08/02 03:01:47;;;;;;;2.53;2.37;;;26.70;82.70;;;;;;5014700;28;20471;-28
2021/08/02 03:04:21;;;;;;;2.93;2.70;;;26.60;82.40;;;;;;5016762;28;20465;-28
2021/08/02 03:06:54;;;;;;;2.80;2.60;;;26.60;82.50;;;;;;5021933;28;20495;-29
2021/08/02 03:09:28;;;;;;;2.70;2.50;;;26.40;83.20;;;;;;5020161;28;20495;-28
2021/08/02 03:12:01;;;;;;;2.60;2.40;;;26.30;84.10;;;;;;5018678;28;20448;-28
2021/08/02 03:14:33;;;;;;;2.63;2.43;;;26.30;84.80;;;;;;5010945;28;20479;-28
2021/08/02 03:17:07;;;;;;;3.30;3.00;;;26.20;85.10;;;;;;5019606;28;20463;-28
2021/08/02 03:19:39;;;;;;;2.93;2.73;;;26.20;85.20;;;;;;5020609;28;20457;-28
2021/08/02 03:22:17;;;;;;;2.90;2.70;;;26.10;85.40;;;;;;5025541;28;20749;-29
2021/08/02 03:24:53;;;;;;;2.63;2.43;;;26.10;85.20;;;;;;5020616;28;20435;-28
2021/08/02 03:27:29;;;;;;;2.33;2.13;;;26.00;85.60;;;;;;5016435;28;20505;-28
2021/08/02 03:30:05;;;;;;;2.77;2.50;;;25.90;86.60;;;;;;5022015;28;20541;-28
2021/08/02 03:32:37;;;;;;;2.50;2.30;;;25.90;87.10;;;;;;5021463;28;20457;-28
2021/08/02 03:35:13;;;;;;;2.70;2.50;;;25.70;88.10;;;;;;5012557;28;20958;-28
2021/08/02 03:37:46;;;;;;;2.60;2.40;;;25.50;89.50;;;;;;5007382;28;20488;-28
2021/08/02 03:40:34;;;;;;;2.43;2.33;;;25.40;90.20;;;;;;5023439;28;20477;-28
2021/08/02 03:43:07;;;;;;;4.90;2.57;;;25.30;90.60;;;;;;5004353;28;20435;-28
2021/08/02 03:45:41;;;;;;;2.67;2.50;;;25.20;90.90;;;;;;5018666;28;20604;-28
2021/08/02 03:48:12;;;;;;;2.80;2.67;;;25.10;91.60;;;;;;5013832;28;20594;-28
2021/08/02 03:50:43;;;;;;;2.50;2.30;;;24.90;91.80;;;;;;5006346;28;20486;-28
2021/08/02 03:53:14;;;;;;;2.57;2.37;;;24.80;92.50;;;;;;5004307;28;20479;-28
2021/08/02 03:55:46;;;;;;;2.50;2.30;;;24.80;92.90;;;;;;5020146;28;20439;-28
2021/08/02 03:58:18;;;;;;;1.97;1.80;;;24.70;93.20;;;;;;5025633;28;20442;-28
2021/08/02 04:00:52;;;;;;;2.30;2.20;;;24.50;93.70;;;;;;5016269;28;20478;-28
2021/08/02 04:03:23;;;;;;;2.43;2.30;;;24.40;94.20;;;;;;5033066;28;20528;-28
2021/08/02 04:05:57;;;;;;;2.63;2.43;;;24.40;94.50;;;;;;5008791;28;21000;-28
2021/08/02 04:08:28;;;;;;;2.47;2.27;;;24.30;95.00;;;;;;5013190;28;20562;-28
2021/08/02 04:10:59;;;;;;;2.90;2.70;;;24.30;95.00;;;;;;5012791;28;20926;-28
2021/08/02 04:13:32;;;;;;;2.87;2.67;;;24.20;95.50;;;;;;5006304;28;20451;-28
2021/08/02 04:16:03;;;;;;;3.10;2.80;;;24.30;95.80;;;;;;5014016;28;20446;-28
2021/08/02 04:18:34;;;;;;;2.73;2.53;;;24.20;95.90;;;;;;5020884;28;20538;-28
2021/08/02 04:21:05;;;;;;;4.50;3.57;;;24.20;96.30;;;;;;5022456;28;20603;-28
2021/08/02 04:23:36;;;;;;;3.50;3.20;;;24.00;96.60;;;;;;5013524;28;20828;-28
2021/08/02 04:26:08;;;;;;;3.33;3.07;;;23.90;97.40;;;;;;5017376;28;20812;-27
2021/08/02 04:28:41;;;;;;;3.27;2.97;;;23.80;97.80;;;;;;5016959;28;20494;-26
2021/08/02 04:31:12;;;;;;;3.63;2.97;;;23.70;98.10;;;;;;5011204;28;20450;-27
2021/08/02 04:33:44;;;;;;;4.63;3.00;;;23.50;98.80;;;;;;5020469;28;20500;-27
2021/08/02 04:36:17;;;;;;;2.77;2.57;;;23.50;98.80;;;;;;5017363;28;20474;-27
2021/08/02 04:38:51;;;;;;;2.90;2.70;;;23.40;99.10;;;;;;5012982;28;20426;-27
2021/08/02 04:41:22;;;;;;;3.80;3.13;;;23.20;99.70;;;;;;5016103;28;20417;-27
2021/08/02 04:43:58;;;;;;;3.27;3.07;;;23.10;99.90;;;;;;5016527;28;20453;-27
2021/08/02 04:46:29;;;;;;;3.37;3.03;;;23.00;99.90;;;;;;5013865;28;20458;-27
2021/08/02 04:49:01;;;;;;;4.17;2.73;;;22.90;99.90;;;;;;5002797;28;20457;-27
2021/08/02 04:51:32;;;;;;;3.83;3.53;;;22.90;99.90;;;;;;5003100;28;20459;-27
2021/08/02 04:54:02;;;;;;;3.07;2.77;;;22.80;99.90;;;;;;5007266;28;20425;-27
2021/08/02 04:56:33;;;;;;;6.00;2.77;;;22.70;99.90;;;;;;5018947;28;20853;-28
2021/08/02 04:59:06;;;;;;;3.23;2.93;;;22.60;99.90;;;;;;5014785;28;20444;-27
2021/08/02 05:01:37;;;;;;;6.30;3.27;;;22.50;99.90;;;;;;5005800;28;20455;-27
2021/08/02 05:04:08;;;;;;;4.10;3.03;;;22.50;99.90;;;;;;5003192;28;20489;-27
2021/08/02 05:06:40;;;;;;;3.77;2.67;;;22.40;99.90;;;;;;5011116;28;20458;-27
2021/08/02 05:09:10;;;;;;;2.70;2.50;;;22.30;99.90;;;;;;5010280;28;20514;-27
2021/08/02 05:11:42;;;;;;;3.70;2.87;;;22.30;99.90;;;;;;5019264;28;20441;-27
2021/08/02 05:14:14;;;;;;;6.73;3.50;;;22.20;99.90;;;;;;5022431;28;20437;-27
2021/08/02 05:16:45;;;;;;;4.37;3.00;;;22.10;99.90;;;;;;5013946;28;20450;-27
2021/08/02 05:19:16;;;;;;;4.80;3.27;;;22.10;99.90;;;;;;5018403;28;20465;-28
2021/08/02 05:21:47;;;;;;;4.80;3.20;;;22.10;99.90;;;;;;5019922;28;20461;-28
2021/08/02 05:24:18;;;;;;;6.73;3.13;;;22.00;99.90;;;;;;5016029;28;20442;-28
2021/08/02 05:26:49;;;;;;;3.30;3.00;;;21.90;99.90;;;;;;5022239;28;20443;-27
2021/08/02 05:29:24;;;;;;;4.07;3.63;;;21.80;99.90;;;;;;5013939;28;20816;-28
2021/08/02 05:31:55;;;;;;;4.00;3.60;;;21.80;99.90;;;;;;5016319;28;20603;-28
2021/08/02 05:34:26;;;;;;;5.20;3.30;;;21.70;99.90;;;;;;5021705;28;20421;-28
2021/08/02 05:36:57;;;;;;;6.90;3.50;;;21.70;99.90;;;;;;5021697;28;20432;-27
2021/08/02 05:39:28;;;;;;;3.97;3.50;;;21.70;99.90;;;;;;5021132;28;20483;-28
2021/08/02 05:41:59;;;;;;;6.07;3.07;;;21.70;99.90;;;;;;5020690;28;20440;-28
2021/08/02 05:44:33;;;;;;;3.40;3.10;;;21.60;99.90;;;;;;5022292;28;20505;-28
2021/08/02 05:47:06;;;;;;;4.90;3.20;;;21.50;99.90;;;;;;5021050;28;20408;-28
2021/08/02 05:49:37;;;;;;;4.03;3.53;;;21.50;99.90;;;;;;5018794;28;20468;-27
2021/08/02 05:52:09;;;;;;;3.80;3.40;;;21.40;99.90;;;;;;5019656;28;20511;-27
2021/08/02 05:54:40;;;;;;;4.20;3.10;;;21.40;99.90;;;;;;5023754;28;20476;-28
2021/08/02 05:57:11;;;;;;;4.20;3.20;;;21.40;99.90;;;;;;5023411;28;20512;-28
2021/08/02 05:59:44;;;;;;;4.27;3.57;;;21.30;99.90;;;;;;5011266;28;20467;-28
2021/08/02 06:02:15;;;;;;;3.60;2.40;;;21.20;99.90;;;;;;5019658;28;20519;-27
2021/08/02 06:04:49;;;;;;;5.40;3.20;;;21.30;99.90;;;;;;5006562;28;20469;-28
2021/08/02 06:07:20;;;;;;;6.03;3.67;;;21.20;99.90;;;;;;5017810;28;20488;-27
2021/08/02 06:09:52;;;;;;;3.63;3.30;;;21.20;99.90;;;;;;5024553;28;20457;-28
2021/08/02 06:12:23;;;;;;;4.00;3.30;;;21.00;99.90;;;;;;5022008;28;20455;-27
2021/08/02 06:14:56;;;;;;;4.63;3.27;;;21.00;99.90;;;;;;5025050;28;20444;-28
2021/08/02 06:17:27;;;;;;;5.27;3.83;;;21.00;99.90;;;;;;5024055;28;20429;-28
2021/08/02 06:20:03;;;;;;;3.90;3.50;;;20.90;99.90;;;;;;5019726;28;20452;-28
2021/08/02 06:22:37;;;;;;;5.63;3.30;;;20.90;99.90;;;;;;5029436;28;20472;-28
2021/08/02 06:25:09;;;;;;;5.40;3.37;;;20.90;99.90;;;;;;5014735;28;20425;-28
2021/08/02 06:27:40;;;;;;;5.10;3.50;;;20.80;99.90;;;;;;5024715;28;20753;-28
2021/08/02 06:30:13;;;;;;;5.00;3.33;;;20.80;99.90;;;;;;5023451;28;20512;-28
2021/08/02 06:32:44;;;;;;;4.73;3.90;;;20.70;99.90;;;;;;5017363;28;20482;-28
2021/08/02 06:35:16;;;;;;;3.67;3.37;;;20.70;99.90;;;;;;5012928;28;20511;-28
2021/08/02 06:37:46;;;;;;;5.20;3.50;;;20.60;99.90;;;;;;5012493;28;20449;-28
2021/08/02 06:40:18;;;;;;;4.67;4.27;;;20.60;99.90;;;;;;5023276;28;20470;-28
2021/08/02 06:42:55;;;;;;;6.03;4.00;;;20.60;99.90;;;;;;5024485;28;20477;-28
2021/08/02 06:45:29;;;;;;;6.27;4.30;;;20.40;99.90;;;;;;5015221;28;20499;-28
2021/08/02 06:48:00;;;;;;;4.20;3.73;;;20.40;99.90;;;;;;5004548;28;20531;-28
2021/08/02 06:50:31;;;;;;;5.93;3.73;;;20.40;99.90;;;;;;5023503;28;20490;-28
2021/08/02 06:53:02;;;;;;;5.10;3.80;;;20.40;99.90;;;;;;5023630;28;20455;-28
2021/08/02 06:55:33;;;;;;;5.83;3.97;;;20.30;99.90;;;;;;5005750;28;20447;-28
2021/08/02 06:58:04;;;;;;;4.73;3.53;;;20.30;99.90;;;;;;5007160;28;20788;-28
2021/08/02 07:00:36;;;;;;;3.90;3.50;;;20.20;99.90;;;;;;5014131;28;20470;-29
2021/08/02 07:03:07;;;;;;;6.77;4.20;;;20.10;99.90;;;;;;5022389;28;20446;-28
2021/08/02 07:05:40;;;;;;;3.90;3.23;;;20.10;99.90;;;;;;5016749;28;20486;-28
2021/08/02 07:08:11;;;;;;;6.63;3.80;;;20.10;99.90;;;;;;5018573;28;20561;-28
2021/08/02 07:10:43;;;;;;;5.60;3.37;;;20.00;99.90;;;;;;5020093;28;20530;-28
2021/08/02 07:13:14;;;;;;;4.67;3.77;;;20.00;99.90;;;;;;5005040;28;20434;-28
2021/08/02 07:15:46;;;;;;;4.07;3.67;;;19.90;99.90;;;;;;5013860;28;20591;-28
2021/08/02 07:18:20;;;;;;;6.00;3.57;;;19.80;99.90;;;;;;5010416;28;20410;-28
2021/08/02 07:20:52;;;;;;;4.10;3.80;;;19.80;99.90;;;;;;5020127;28;20446;-27
2021/08/02 07:23:24;;;;;;;5.23;3.40;;;19.70;99.90;;;;;;5025976;28;20426;-28
2021/08/02 07:25:55;;;;;;;5.63;4.07;;;19.60;99.90;;;;;;5017078;28;20428;-28
2021/08/02 07:28:26;;;;;;;5.13;3.33;;;19.60;99.90;;;;;;5014227;28;20454;-28
2021/08/02 07:30:58;;;;;;;6.40;3.90;;;19.60;99.90;;;;;;5005064;28;20482;-28
2021/08/02 07:33:30;;;;;;;4.97;3.67;;;19.60;99.90;;;;;;5014572;28;20458;-28
2021/08/02 07:36:00;;;;;;;5.77;3.93;;;19.60;99.90;;;;;;5013482;28;20486;-28
2021/08/02 07:38:32;;;;;;;4.80;3.80;;;19.50;99.90;;;;;;5016118;28;20483;-26
2021/08/02 07:41:03;;;;;;;4.97;4.33;;;19.40;99.90;;;;;;5015916;28;20450;-27
2021/08/02 07:43:34;;;;;;;4.30;3.70;;;19.30;99.90;;;;;;5023567;28;20458;-27
2021/08/02 07:46:07;;;;;;;7.30;3.60;;;19.30;99.90;;;;;;5013374;28;20769;-26
2021/08/02 07:48:39;;;;;;;5.83;4.00;;;19.20;99.90;;;;;;5007158;28;20473;-27
2021/08/02 07:51:10;;;;;;;3.70;3.00;;;19.20;99.90;;;;;;5020359;28;20522;-26
2021/08/02 07:53:41;;;;;;;7.30;4.37;;;19.20;99.90;;;;;;5012257;28;20436;-27
2021/08/02 07:56:12;;;;;;;7.17;4.10;;;19.10;99.90;;;;;;5012238;28;20475;-27
2021/08/02 07:58:43;;;;;;;5.43;3.77;;;19.10;99.90;;;;;;5007527;28;20464;-27
2021/08/02 08:01:16;;;;;;;5.00;4.20;;;19.00;99.90;;;;;;5022397;28;20461;-27
2021/08/02 08:03:47;;;;;;;6.53;3.83;;;19.00;99.90;;;;;;5023156;28;20442;-27
2021/08/02 08:06:18;;;;;;;7.73;4.50;;;19.00;99.90;;;;;;5023789;28;20468;-27
2021/08/02 08:08:49;;;;;;;2.90;2.60;;;18.90;99.90;;;;;;5019723;28;20518;-27
2021/08/02 08:11:20;;;;;;;12.33;3.87;;;18.90;99.90;;;;;;5020724;28;20501;-27
2021/08/02 08:13:51;;;;;;;5.60;4.07;;;18.80;99.90;;;;;;5016160;28;20486;-27
2021/08/02 08:16:25;;;;;;;5.00;3.90;;;18.70;99.90;;;;;;5003333;28;20475;-28
2021/08/02 08:18:56;;;;;;;7.17;3.70;;;18.70;99.90;;;;;;5010116;28;20514;-27
2021/08/02 08:21:27;;;;;;;4.97;3.37;;;18.60;99.90;;;;;;5004784;28;20525;-27
2021/08/02 08:23:59;;;;;;;4.27;3.43;;;18.50;99.90;;;;;;5021771;28;20806;-27
2021/08/02 08:26:30;;;;;;;4.47;3.37;;;18.50;99.90;;;;;;5022959;28;20510;-26
2021/08/02 08:29:01;;;;;;;5.27;3.80;;;18.40;99.90;;;;;;5014425;28;20457;-26
2021/08/02 08:31:33;;;;;;;4.50;3.57;;;18.40;99.90;;;;;;5019257;28;20516;-27
2021/08/02 08:34:06;;;;;;;4.87;3.53;;;18.40;99.90;;;;;;5023265;28;20518;-26
2021/08/02 08:36:37;;;;;;;6.53;3.53;;;18.40;99.90;;;;;;5025007;28;20455;-27
2021/08/02 08:39:08;;;;;;;4.60;3.93;;;18.30;99.90;;;;;;5020375;28;20478;-28
2021/08/02 08:41:39;;;;;;;3.77;3.37;;;18.20;99.90;;;;;;5021992;28;20472;-27
2021/08/02 08:44:11;;;;;;;5.80;3.57;;;18.20;99.90;;;;;;5003191;28;20471;-27
2021/08/02 08:46:44;;;;;;;8.17;4.10;;;18.10;99.90;;;;;;5002906;28;20475;-27
2021/08/02 08:49:15;;;;;;;5.33;3.37;;;18.10;99.90;;;;;;5015838;28;20559;-27
2021/08/02 08:51:48;;;;;;;6.00;3.50;;;18.00;99.90;;;;;;5006330;28;20543;-27
2021/08/02 08:54:19;;;;;;;7.50;3.83;;;17.90;99.90;;;;;;5019045;28;20456;-27
2021/08/02 08:56:52;;;;;;;7.83;4.63;;;17.90;99.90;;;;;;5010449;28;20458;-27
2021/08/02 08:59:23;;;;;;;5.07;3.87;;;17.80;99.90;;;;;;5022680;28;20450;-27
2021/08/02 09:02:05;;;;;;;6.07;3.77;;;17.70;99.90;;;;;;5021188;28;20462;-27
2021/08/02 09:04:37;;;;;;;5.27;4.40;;;17.70;99.90;;;;;;5004746;28;20574;-27
2021/08/02 09:07:10;;;;;;;5.90;3.90;;;17.70;99.90;;;;;;5003485;28;20478;-27
2021/08/02 09:09:41;;;;;;;6.83;3.83;;;17.60;99.90;;;;;;5015903;28;20473;-27
2021/08/02 09:12:16;;;;;;;8.10;4.33;;;17.60;99.90;;;;;;5020582;28;20482;-27
2021/08/02 09:14:53;;;;;;;5.70;3.67;;;17.50;99.90;;;;;;5003157;28;20447;-26
2021/08/02 09:17:35;;;;;;;5.70;4.43;;;17.50;99.90;;;;;;5008347;28;20455;-27
2021/08/02 09:20:07;;;;;;;5.83;4.40;;;17.50;99.90;;;;;;5030399;28;20420;-27
2021/08/02 09:22:39;;;;;;;11.53;5.57;;;17.50;99.90;;;;;;5004403;28;20581;-26
2021/08/02 09:25:13;;;;;;;7.00;4.43;;;17.40;99.90;;;;;;5014661;28;20505;-26
2021/08/02 09:27:45;;;;;;;5.83;4.07;;;17.40;99.90;;;;;;5005548;28;20505;-26
2021/08/02 09:30:21;;;;;;;6.13;4.27;;;17.40;99.90;;;;;;5026521;28;20531;-27
2021/08/02 09:32:59;;;;;;;4.20;3.77;;;17.40;99.90;;;;;;5017338;28;20468;-27
2021/08/02 09:35:35;;;;;;;5.13;3.87;;;17.30;99.90;;;;;;5023902;28;20551;-27
2021/08/02 09:38:08;;;;;;;4.27;3.87;;;17.30;99.90;;;;;;5025563;28;20496;-28
2021/08/02 09:40:50;;;;;;;7.13;4.57;;;17.30;99.90;;;;;;5020780;28;20457;-27
2021/08/02 09:43:22;;;;;;;3.77;3.40;;;17.30;99.90;;;;;;5025077;28;20454;-28
2021/08/02 09:46:10;;;;;;;5.47;4.10;;;17.20;99.90;;;;;;5025896;28;20457;-27
2021/08/02 09:48:44;;;;;;;5.37;4.37;;;17.20;99.90;;;;;;5022539;28;20449;-27
2021/08/02 09:51:16;;;;;;;6.70;4.40;;;17.20;99.90;;;;;;5038440;28;20512;-27
2021/08/02 09:53:48;;;;;;;5.83;4.93;;;17.20;99.90;;;;;;5018784;28;20451;-28
2021/08/02 09:56:23;;;;;;;5.80;4.20;;;17.10;99.90;;;;;;5006879;28;20794;-27
2021/08/02 09:59:10;;;;;;;4.03;3.60;;;17.10;99.90;;;;;;5009377;28;20470;-27
2021/08/02 10:01:43;;;;;;;6.10;3.93;;;17.20;99.90;;;;;;5005479;28;20485;-27
2021/08/02 10:04:17;;;;;;;4.50;4.10;;;17.10;99.90;;;;;;5021389;28;20481;-28
2021/08/02 10:06:49;;;;;;;5.87;4.50;;;17.10;99.90;;;;;;5024985;28;20832;-28
2021/08/02 10:09:22;;;;;;;4.17;3.43;;;17.10;99.90;;;;;;5006454;28;20483;-27
2021/08/02 10:11:53;;;;;;;5.30;3.83;;;17.00;99.90;;;;;;5014929;28;20477;-27
2021/08/02 10:14:30;;;;;;;6.20;4.30;;;17.00;99.90;;;;;;5006173;28;20479;-27
2021/08/02 10:17:05;;;;;;;6.73;4.10;;;17.00;99.90;;;;;;5017071;28;20549;-28
2021/08/02 10:19:41;;;;;;;6.90;4.03;;;17.00;99.90;;;;;;5016106;28;20454;-27
2021/08/02 10:22:12;;;;;;;5.27;4.00;;;16.90;99.90;;;;;;5005619;28;20454;-27
2021/08/02 10:24:50;;;;;;;7.90;4.00;;;16.90;99.90;;;;;;5005545;28;20491;-27
2021/08/02 10:27:29;;;;;;;5.63;4.10;;;16.90;99.90;;;;;;5015961;28;20474;-28
2021/08/02 10:30:22;;;;;;;6.00;4.23;;;16.90;99.90;;;;;;5006258;28;20516;-27
2021/08/02 10:32:55;;;;;;;4.30;3.90;;;16.90;99.90;;;;;;5014265;28;20574;-27
2021/08/02 10:35:54;;;;;;;5.23;3.97;;;16.90;99.90;;;;;;5023113;28;20451;-27
2021/08/02 10:38:25;;;;;;;13.73;4.37;;;16.90;99.90;;;;;;4929073;29;20895;-27
2021/08/02 10:40:57;;;;;;;6.37;4.90;;;16.80;99.90;;;;;;4947896;29;21045;-27
2021/08/02 10:43:36;;;;;;;4.63;3.63;;;16.90;99.90;;;;;;4944806;29;20525;-27
2021/08/02 10:46:24;;;;;;;5.00;4.33;;;16.80;99.90;;;;;;4944413;29;20483;-27
2021/08/02 10:48:56;;;;;;;8.57;4.40;;;16.80;99.90;;;;;;4951766;29;20454;-27
2021/08/02 10:51:29;;;;;;;5.97;4.20;;;16.90;99.90;;;;;;4953199;29;20477;-27
2021/08/02 10:54:16;;;;;;;6.30;4.50;;;16.90;99.90;;;;;;4944396;29;20470;-28
2021/08/02 10:56:49;;;;;;;5.40;4.57;;;16.90;99.90;;;;;;4945203;29;20472;-27
2021/08/02 10:59:21;;;;;;;4.70;4.20;;;16.80;99.90;;;;;;4947259;28;20513;-27
2021/08/02 11:01:54;;;;;;;6.10;4.20;;;16.80;99.90;;;;;;4929259;29;20481;-27
2021/08/02 11:04:28;;;;;;;4.87;4.47;;;16.70;99.90;;;;;;4948663;29;20542;-27
2021/08/02 11:07:01;;;;;;;8.47;4.77;;;16.80;99.90;;;;;;4955723;28;20491;-28
2021/08/02 11:09:33;;;;;;;5.57;3.87;;;16.70;99.90;;;;;;4943693;29;20465;-28
2021/08/02 11:12:08;;;;;;;6.33;4.27;;;16.70;99.90;;;;;;4946116;29;20507;-27
2021/08/02 11:14:48;;;;;;;6.83;3.83;;;16.70;99.90;;;;;;5000712;28;20453;-28
2021/08/02 11:17:20;;;;;;;4.90;4.40;;;16.70;99.90;;;;;;5018309;28;20454;-27
2021/08/02 11:20:07;;;;;;;6.50;4.77;;;16.60;99.90;;;;;;5024846;28;20564;-25
2021/08/02 11:22:50;;;;;;;7.43;4.33;;;16.70;99.90;;;;;;5026063;28;20461;-26
2021/08/02 11:25:26;;;;;;;5.53;4.80;;;16.70;99.90;;;;;;5020626;28;20922;-26
2021/08/02 11:28:01;;;;;;;6.23;4.40;;;16.70;99.90;;;;;;5023791;28;20453;-26
2021/08/02 11:30:34;;;;;;;6.30;4.57;;;16.70;99.90;;;;;;5024226;28;20437;-26
2021/08/02 11:33:05;;;;;;;7.30;4.03;;;16.70;99.90;;;;;;5012794;28;20517;-27
2021/08/02 11:35:37;;;;;;;7.63;4.37;;;16.60;99.90;;;;;;5020512;28;20454;-27
2021/08/02 11:38:09;;;;;;;6.07;3.80;;;16.60;99.90;;;;;;5023295;28;20465;-27
2021/08/02 11:40:41;;;;;;;6.80;4.50;;;16.60;99.90;;;;;;5019641;28;20553;-27
2021/08/02 11:43:12;;;;;;;5.70;4.40;;;16.60;99.90;;;;;;5018184;28;20442;-27
2021/08/02 11:45:45;;;;;;;6.23;4.47;;;16.60;99.90;;;;;;5021284;28;20486;-27
2021/08/02 11:48:17;;;;;;;6.07;4.97;;;16.60;99.90;;;;;;5007404;28;20506;-26
2021/08/02 11:50:49;;;;;;;9.30;5.00;;;16.50;99.90;;;;;;5006041;28;20527;-26
2021/08/02 11:53:22;;;;;;;9.33;5.50;;;16.60;99.90;;;;;;5021167;28;20485;-26
2021/08/02 11:55:53;;;;;;;6.83;4.13;;;16.60;99.90;;;;;;5023739;28;20508;-26
2021/08/02 11:58:24;;;;;;;6.27;4.13;;;16.50;99.90;;;;;;5016477;28;20498;-26
2021/08/02 12:01:01;;;;;;;7.83;4.53;;;16.50;99.90;;;;;;5015203;28;20489;-26
2021/08/02 12:03:33;;;;;;;7.60;4.37;;;16.40;99.90;;;;;;5022712;28;20458;-26
2021/08/02 12:06:18;;;;;;;5.30;4.77;;;16.40;99.90;;;;;;5019863;28;20446;-26
2021/08/02 12:08:55;;;;;;;6.43;4.70;;;16.40;99.90;;;;;;5014745;28;20479;-26
2021/08/02 12:11:26;;;;;;;7.10;4.87;;;16.40;99.90;;;;;;5020581;28;20588;-27
2021/08/02 12:13:57;;;;;;;6.50;4.90;;;16.40;99.90;;;;;;5022927;28;20872;-27
2021/08/02 12:16:30;;;;;;;8.87;5.80;;;16.40;99.90;;;;;;5022172;28;20446;-27
2021/08/02 12:19:09;;;;;;;5.73;4.60;;;16.40;99.90;;;;;;5015777;28;20509;-27
2021/08/02 12:21:40;;;;;;;5.20;4.70;;;16.30;99.90;;;;;;5024243;28;20454;-27
2021/08/02 12:24:15;;;;;;;6.13;4.90;;;16.40;99.90;;;;;;5022209;28;20454;-27
2021/08/02 12:26:50;;;;;;;9.33;5.27;;;16.30;99.90;;;;;;5022759;28;20454;-27
2021/08/02 12:29:25;;;;;;;5.80;4.50;;;16.30;99.90;;;;;;5011838;28;20490;-27
2021/08/02 12:32:01;;;;;;;9.07;5.20;;;16.30;99.90;;;;;;5018551;28;20457;-27
2021/08/02 12:34:32;;;;;;;6.90;4.20;;;16.30;99.90;;;;;;5023416;28;20462;-26
2021/08/02 12:37:04;;;;;;;8.93;5.13;;;16.20;99.90;;;;;;5022005;28;20451;-27
2021/08/02 12:39:41;;;;;;;8.17;5.40;;;16.20;99.90;;;;;;5010260;28;20454;-27
2021/08/02 12:42:14;;;;;;;6.10;4.67;;;16.20;99.90;;;;;;5021563;28;20504;-26
2021/08/02 12:44:48;;;;;;;7.23;4.87;;;16.20;99.90;;;;;;5022271;28;20478;-26
2021/08/02 12:47:40;;;;;;;6.63;5.40;;;16.20;99.90;;;;;;5020206;28;20518;-26
2021/08/02 12:50:13;;;;;;;6.37;5.00;;;16.20;99.90;;;;;;5030570;28;20917;-26
2021/08/02 12:52:45;;;;;;;7.07;5.10;;;16.20;99.90;;;;;;5005242;28;20501;-26
2021/08/02 12:55:18;;;;;;;7.00;4.73;;;16.20;99.90;;;;;;5022795;28;20478;-26
2021/08/02 12:57:49;;;;;;;8.50;5.20;;;16.20;99.90;;;;;;5014262;28;20469;-26
2021/08/02 13:00:22;;;;;;;7.80;5.23;;;16.20;99.90;;;;;;5005298;28;20494;-27
2021/08/02 13:02:55;;;;;;;6.53;5.43;;;16.20;99.90;;;;;;5025872;28;20450;-27
2021/08/02 13:05:27;;;;;;;11.03;6.10;;;16.20;99.90;;;;;;5017019;28;20458;-26
2021/08/02 13:07:58;;;;;;;8.43;6.10;;;16.10;99.90;;;;;;5019721;28;20837;-25
2021/08/02 13:10:34;;;;;;;10.07;7.30;;;16.10;99.90;;;;;;5022607;28;20455;-26
2021/08/02 13:13:06;;;;;;;7.80;6.10;;;16.10;99.90;;;;;;5026654;28;20551;-27
2021/08/02 13:15:51;;;;;;;9.73;6.60;;;16.10;99.90;;;;;;5015947;28;20496;-26
2021/08/02 13:18:24;;;;;;;9.23;6.27;;;16.10;99.90;;;;;;5024449;28;20450;-26